Gifford, Arkansas
Current Conditions -  °F | °C
As of 3:10 AM on Sunday 26 Oct 2014 (Local Time) from KHOT Reporting Station
Haze Haze  
Wind Chill: 16°   Ceiling: Unl
Heat Index: 16°   Visibility: 3mi
Dew Point: 15°   Wind: 0mph
Humidity: 96%   Direction: NA
Pressure: 30.02"   Gusts: NA
Location:  34.3189°N, 92.8629°W
Report Text: KHOT 260810Z AUTO 00000KT 3SM BR CLR 16/15 A3002 RMK AO2 T01560150
Loading
Personal Weather Stations






























Interactive Weather Map
Tropical Storm Tracking
New forecast layout! Learn more

10-Day Weather Forecast

Advertisements
Track Severe Weather on mobile